Time;durP1;ratioP1;P1;durP2;ratioP2;P2;SDS_P1;SDS_P2;PMS_P1;PMS_P2;Temp;Humidity;BMP_temperature;BMP_pressure;BME280_temperature;BME280_humidity;BME280_pressure;Samples;Min_cycle;Max_cycle;Signal;HPM_P1;HPM_P2
2023/03/14 00:00:54;;;;;;;;;;;;;;;8.46;87.37;98863.69;107697;1259;72687;-84
2023/03/14 00:03:22;;;;;;;;;;;;;;;8.45;87.41;98861.77;107693;1255;124578;-83
2023/03/14 00:05:49;;;;;;;;;;;;;;;8.45;87.51;98864.58;107715;1265;60987;-84
2023/03/14 00:08:16;;;;;;;;;;;;;;;8.45;87.57;98869.65;107719;1257;75192;-85
2023/03/14 00:10:46;;;;;;;;;;;;;;;8.45;87.53;98875.41;107570;1256;124825;-84
2023/03/14 00:13:13;;;;;;;;;;;;;;;8.45;87.63;98876.80;107875;1256;71440;-84
2023/03/14 00:15:40;;;;;;;;;;;;;;;8.46;87.65;98878.21;107866;1257;124895;-84
2023/03/14 00:18:07;;;;;;;;;;;;;;;8.47;87.67;98887.48;108063;1256;60013;-84
2023/03/14 00:20:34;;;;;;;;;;;;;;;8.50;87.77;98896.75;108039;1256;72368;-84
2023/03/14 00:23:02;;;;;;;;;;;;;;;8.51;87.79;98899.38;108872;1256;124571;-84
2023/03/14 00:25:29;;;;;;;;;;;;;;;8.53;87.74;98887.85;109062;1256;71162;-84
2023/03/14 00:27:56;;;;;;;;;;;;;;;8.54;87.74;98886.45;108974;1256;125205;-84
2023/03/14 00:30:25;;;;;;;;;;;;;;;8.56;87.72;98882.61;109133;1256;59335;-84
2023/03/14 00:32:52;;;;;;;;;;;;;;;8.57;87.66;98874.23;108962;1256;73284;-84
2023/03/14 00:35:19;;;;;;;;;;;;;;;8.56;87.60;98861.99;107662;1259;124442;-82
2023/03/14 00:37:46;;;;;;;;;;;;;;;8.55;87.57;98867.23;107586;1256;72409;-84
2023/03/14 00:40:13;;;;;;;;;;;;;;;8.56;87.63;98863.73;108759;1255;124703;-84
2023/03/14 00:42:40;;;;;;;;;;;;;;;8.58;87.81;98860.25;109036;1256;59236;-84
2023/03/14 00:45:08;;;;;;;;;;;;;;;8.65;87.89;98859.91;109039;1255;73155;-84
2023/03/14 00:47:35;;;;;;;;;;;;;;;8.72;87.96;98851.18;108959;1256;124438;-81
2023/03/14 00:50:02;;;;;;;;;;;;;;;8.80;87.93;98852.94;108896;1257;72772;-84
2023/03/14 00:52:29;;;;;;;;;;;;;;;8.84;87.96;98855.39;108792;1256;125175;-81
2023/03/14 00:54:56;;;;;;;;;;;;;;;8.88;87.76;98856.80;108943;1256;59219;-81
2023/03/14 00:57:23;;;;;;;;;;;;;;;8.91;87.64;98860.48;108708;1256;125113;-81
2023/03/14 00:59:50;;;;;;;;;;;;;;;8.93;87.54;98862.06;108981;1256;66572;-81
2023/03/14 01:02:17;;;;;;;;;;;;;;;8.96;87.61;98864.16;108868;1257;71546;-81
2023/03/14 01:04:44;;;;;;;;;;;;;;;8.99;87.48;98869.06;108906;1256;124667;-81
2023/03/14 01:07:11;;;;;;;;;;;;;;;9.01;87.51;98865.91;108891;1257;60126;-82
2023/03/14 01:09:38;;;;;;;;;;;;;;;9.05;87.42;98866.45;108842;1259;125079;-82
2023/03/14 01:12:05;;;;;;;;;;;;;;;9.08;87.42;98856.99;108813;1257;65361;-81
2023/03/14 01:14:32;;;;;;;;;;;;;;;9.12;87.35;98840.55;108896;1256;71498;-83
2023/03/14 01:17:00;;;;;;;;;;;;;;;9.13;87.18;98830.58;108881;1256;126443;-83
2023/03/14 01:19:28;;;;;;;;;;;;;;;9.13;87.08;98825.67;108879;1255;60106;-83
2023/03/14 01:21:55;;;;;;;;;;;;;;;9.14;87.06;98829.17;108789;1256;124795;-83
2023/03/14 01:24:22;;;;;;;;;;;;;;;9.13;86.99;98834.94;108992;1255;65875;-83
2023/03/14 01:26:49;;;;;;;;;;;;;;;9.12;86.81;98841.42;108927;1256;72626;-84
2023/03/14 01:29:16;;;;;;;;;;;;;;;9.10;86.76;98822.88;108924;1255;124417;-84
2023/03/14 01:31:43;;;;;;;;;;;;;;;9.09;86.81;98820.42;109054;1256;59076;-84
2023/03/14 01:34:10;;;;;;;;;;;;;;;9.09;86.83;98819.20;108972;1254;124401;-85
2023/03/14 01:36:38;;;;;;;;;;;;;;;9.13;86.99;98809.39;108780;1255;66907;-86
2023/03/14 01:39:05;;;;;;;;;;;;;;;9.17;86.89;98819.20;108974;1254;72756;-86
2023/03/14 01:41:32;;;;;;;;;;;;;;;9.19;86.90;98818.49;108898;1254;124679;-86
2023/03/14 01:43:59;;;;;;;;;;;;;;;9.22;86.86;98820.42;108935;1256;59895;-85
2023/03/14 01:46:39;;;;;;;;;;;;;;;9.23;86.83;98815.00;109084;1255;124645;-85
2023/03/14 01:49:26;;;;;;;;;;;;;;;9.24;86.72;98810.79;108963;1260;65864;-84
2023/03/14 01:51:57;;;;;;;;;;;;;;;9.24;86.63;98817.45;109113;1255;124463;-85
2023/03/14 01:54:42;;;;;;;;;;;;;;;9.25;86.61;98816.21;108656;1257;61275;-85
2023/03/14 01:57:14;;;;;;;;;;;;;;;9.24;86.47;98809.58;107904;1254;60870;-85
2023/03/14 01:59:42;;;;;;;;;;;;;;;9.24;86.48;98809.92;107650;1254;124405;-84
2023/03/14 02:02:10;;;;;;;;;;;;;;;9.26;86.61;98809.05;107673;1256;64927;-84
2023/03/14 02:04:36;;;;;;;;;;;;;;;9.28;86.62;98808.35;107528;1254;124711;-84
2023/03/14 02:07:06;;;;;;;;;;;;;;;9.32;86.60;98798.54;107851;1255;61312;-85
2023/03/14 02:09:33;;;;;;;;;;;;;;;9.36;86.52;98791.52;107783;1255;124567;-82
2023/03/14 02:12:00;;;;;;;;;;;;;;;9.37;86.34;98791.17;108237;1254;74643;-82
2023/03/14 02:14:30;;;;;;;;;;;;;;;9.36;86.30;98789.08;108455;1255;66523;-82
2023/03/14 02:16:56;;;;;;;;;;;;;;;9.37;86.32;98784.88;107900;1254;124784;-82
2023/03/14 02:19:29;;;;;;;;;;;;;;;9.36;86.23;98789.96;108169;1259;59713;-81
2023/03/14 02:21:59;;;;;;;;;;;;;;;9.37;86.16;98776.84;107844;1254;125005;-81
2023/03/14 02:24:26;;;;;;;;;;;;;;;9.35;86.12;98780.15;107897;1256;74663;-84
2023/03/14 02:27:06;;;;;;;;;;;;;;;9.32;86.00;98792.41;107872;1257;65108;-85
2023/03/14 02:29:33;;;;;;;;;;;;;;;9.26;85.80;98794.34;107704;1254;124571;-85
2023/03/14 02:32:00;;;;;;;;;;;;;;;9.21;85.66;98791.20;107785;1254;61583;-85
2023/03/14 02:34:27;;;;;;;;;;;;;;;9.17;85.79;98783.52;107911;1258;124618;-85
2023/03/14 02:36:54;;;;;;;;;;;;;;;9.12;85.71;98779.13;107839;1254;74715;-84
2023/03/14 02:39:23;;;;;;;;;;;;;;;9.08;85.73;98784.38;107846;1259;124757;-84
2023/03/14 02:41:50;;;;;;;;;;;;;;;9.06;85.83;98779.85;107905;1257;72375;-84
2023/03/14 02:44:17;;;;;;;;;;;;;;;9.05;85.77;98788.41;107933;1255;61387;-84
2023/03/14 02:46:44;;;;;;;;;;;;;;;9.03;85.87;98789.80;107719;1260;125063;-84
2023/03/14 02:49:11;;;;;;;;;;;;;;;9.02;85.81;98775.27;107979;1253;74688;-84
2023/03/14 02:51:38;;;;;;;;;;;;;;;9.00;85.83;98767.08;107698;1254;124734;-84
2023/03/14 02:54:12;;;;;;;;;;;;;;;8.97;85.75;98764.79;107831;1259;72713;-85
2023/03/14 02:56:38;;;;;;;;;;;;;;;8.95;85.74;98761.13;107580;1257;59300;-85
2023/03/14 02:59:05;;;;;;;;;;;;;;;8.92;85.75;98765.33;107632;1255;124432;-85
2023/03/14 03:01:33;;;;;;;;;;;;;;;8.90;85.69;98775.63;107805;1259;73802;-85
2023/03/14 03:04:00;;;;;;;;;;;;;;;8.87;85.77;98793.66;109010;1254;125262;-84
2023/03/14 03:06:27;;;;;;;;;;;;;;;8.84;85.69;98808.16;109176;1259;72087;-84
2023/03/14 03:08:54;;;;;;;;;;;;;;;8.82;85.74;98815.87;109123;1254;59601;-84
2023/03/14 03:11:21;;;;;;;;;;;;;;;8.81;85.88;98821.11;108897;1256;124707;-84
2023/03/14 03:13:48;;;;;;;;;;;;;;;8.82;85.86;98820.05;109196;1254;74393;-82
2023/03/14 03:16:15;;;;;;;;;;;;;;;8.83;85.96;98815.88;109012;1254;124378;-82
2023/03/14 03:18:42;;;;;;;;;;;;;;;8.84;85.88;98828.11;108834;1262;71171;-82
2023/03/14 03:21:09;;;;;;;;;;;;;;;8.85;85.89;98838.43;109124;1258;59104;-82
2023/03/14 03:23:36;;;;;;;;;;;;;;;8.85;85.86;98850.67;109093;1257;125032;-84
2023/03/14 03:26:03;;;;;;;;;;;;;;;8.85;85.81;98856.45;109022;1254;73371;-84
2023/03/14 03:28:30;;;;;;;;;;;;;;;8.86;85.81;98860.11;109013;1257;124719;-82
2023/03/14 03:30:57;;;;;;;;;;;;;;;8.88;85.86;98859.60;109112;1258;72177;-82
2023/03/14 03:33:24;;;;;;;;;;;;;;;8.91;85.83;98854.88;109026;1254;124631;-82
2023/03/14 03:35:52;;;;;;;;;;;;;;;8.94;85.77;98855.05;108990;1256;60158;-85
2023/03/14 03:38:20;;;;;;;;;;;;;;;8.98;85.79;98864.50;109024;1254;74794;-85
2023/03/14 03:40:47;;;;;;;;;;;;;;;9.02;85.70;98863.98;108914;1254;124582;-85
2023/03/14 03:43:14;;;;;;;;;;;;;;;9.04;85.65;98862.95;109035;1254;70994;-85
2023/03/14 03:45:41;;;;;;;;;;;;;;;9.08;85.63;98866.61;109033;1254;124750;-85
2023/03/14 03:48:10;;;;;;;;;;;;;;;9.10;85.62;98861.71;108933;1254;60197;-85
2023/03/14 03:50:37;;;;;;;;;;;;;;;9.12;85.65;98866.09;108986;1257;74845;-85
2023/03/14 03:53:05;;;;;;;;;;;;;;;9.14;85.52;98869.77;108959;1255;124644;-85
2023/03/14 03:55:32;;;;;;;;;;;;;;;9.16;85.45;98865.40;109191;1254;72848;-85
2023/03/14 03:57:59;;;;;;;;;;;;;;;9.18;85.57;98849.81;109038;1254;124642;-85
2023/03/14 04:00:26;;;;;;;;;;;;;;;9.22;85.52;98849.13;107654;1254;61556;-83
2023/03/14 04:02:52;;;;;;;;;;;;;;;9.26;85.63;98847.38;107906;1259;73458;-82
2023/03/14 04:05:20;;;;;;;;;;;;;;;9.31;85.52;98842.29;108223;1254;124950;-85
2023/03/14 04:07:47;;;;;;;;;;;;;;;9.36;85.57;98834.76;108082;1257;71396;-82
2023/03/14 04:10:16;;;;;;;;;;;;;;;9.41;85.64;98826.17;107675;1260;61127;-85
2023/03/14 04:12:44;;;;;;;;;;;;;;;9.45;85.58;98824.95;107427;1254;60167;-85
2023/03/14 04:15:11;;;;;;;;;;;;;;;9.49;85.55;98823.02;107635;1260;74712;-85
2023/03/14 04:17:37;;;;;;;;;;;;;;;9.53;85.45;98829.84;109049;1254;124996;-85
2023/03/14 04:20:05;;;;;;;;;;;;;;;9.56;85.41;98823.70;109138;1255;71384;-82
2023/03/14 04:22:32;;;;;;;;;;;;;;;9.59;85.31;98818.09;108996;1254;124351;-82
2023/03/14 04:24:59;;;;;;;;;;;;;;;9.63;85.42;98811.43;109176;1254;58987;-82
2023/03/14 04:27:26;;;;;;;;;;;;;;;9.67;85.22;98806.70;109102;1253;125290;-85
2023/03/14 04:29:52;;;;;;;;;;;;;;;9.70;85.20;98801.27;109194;1255;65640;-85
2023/03/14 04:32:19;;;;;;;;;;;;;;;9.73;85.11;98802.48;108874;1254;71475;-85
2023/03/14 04:34:47;;;;;;;;;;;;;;;9.75;84.99;98798.98;109051;1254;124399;-86
2023/03/14 04:37:14;;;;;;;;;;;;;;;9.78;84.97;98796.85;109224;1253;60048;-83
2023/03/14 04:39:41;;;;;;;;;;;;;;;9.79;84.89;98798.41;109112;1254;125354;-82
2023/03/14 04:42:08;;;;;;;;;;;;;;;9.82;84.87;98791.77;108958;1257;65866;-83
2023/03/14 04:44:35;;;;;;;;;;;;;;;9.84;84.79;98787.38;108923;1254;71709;-82
2023/03/14 04:47:02;;;;;;;;;;;;;;;9.86;84.70;98781.77;109032;1257;125637;-83
2023/03/14 04:49:29;;;;;;;;;;;;;;;9.87;84.64;98778.27;108918;1257;59980;-82
2023/03/14 04:51:56;;;;;;;;;;;;;;;9.88;84.46;98773.00;109048;1254;125151;-82
2023/03/14 04:54:26;;;;;;;;;;;;;;;9.87;84.33;98768.45;109067;1257;67441;-81
2023/03/14 04:56:53;;;;;;;;;;;;;;;9.84;84.18;98764.26;108501;1254;72195;-82
2023/03/14 04:59:20;;;;;;;;;;;;;;;9.81;84.19;98760.94;107836;1254;124616;-82
2023/03/14 05:01:49;;;;;;;;;;;;;;;9.77;84.03;98751.84;108106;1254;59897;-80
2023/03/14 05:04:16;;;;;;;;;;;;;;;9.72;84.02;98746.77;107963;1260;125011;-80
2023/03/14 05:06:43;;;;;;;;;;;;;;;9.68;84.06;98746.97;107750;1260;66953;-80
2023/03/14 05:09:10;;;;;;;;;;;;;;;9.64;84.02;98734.37;107823;1254;72758;-81
2023/03/14 05:11:37;;;;;;;;;;;;;;;9.60;84.16;98725.98;107998;1254;124984;-80
2023/03/14 05:14:05;;;;;;;;;;;;;;;9.58;84.03;98723.73;107510;1254;60253;-85
2023/03/14 05:16:32;;;;;;;;;;;;;;;9.52;83.89;98719.19;107448;1254;124523;-86
2023/03/14 05:19:05;;;;;;;;;;;;;;;9.48;83.98;98712.20;107429;1254;67027;-85
2023/03/14 05:21:32;;;;;;;;;;;;;;;9.44;84.09;98710.63;107426;1254;124624;-85
2023/03/14 05:23:59;;;;;;;;;;;;;;;9.41;84.09;98708.19;107301;1254;59436;-85
2023/03/14 05:26:26;;;;;;;;;;;;;;;9.40;84.19;98705.92;107464;1254;61362;-85
2023/03/14 05:29:05;;;;;;;;;;;;;;;9.37;84.08;98711.70;107677;1254;124680;-86
2023/03/14 05:31:33;;;;;;;;;;;;;;;9.33;84.13;98716.27;107898;1254;67060;-86
2023/03/14 05:34:00;;;;;;;;;;;;;;;9.31;84.26;98709.80;107251;1257;125142;-85
2023/03/14 05:36:27;;;;;;;;;;;;;;;9.30;84.19;98711.38;107375;1257;61011;-86
2023/03/14 05:39:02;;;;;;;;;;;;;;;9.29;84.31;98719.77;107459;1256;60064;-89
2023/03/14 05:41:29;;;;;;;;;;;;;;;9.32;84.46;98730.97;107285;1257;125445;-85
2023/03/14 05:43:57;;;;;;;;;;;;;;;9.36;84.62;98729.04;107338;1257;67754;-86
2023/03/14 05:46:24;;;;;;;;;;;;;;;9.45;84.69;98733.22;107734;1256;125072;-80
2023/03/14 05:48:51;;;;;;;;;;;;;;;9.48;84.61;98738.63;107999;1257;61438;-79
2023/03/14 05:51:18;;;;;;;;;;;;;;;9.53;84.72;98744.04;107794;1257;61903;-86
2023/03/14 05:53:46;;;;;;;;;;;;;;;9.58;84.55;98751.55;107693;1256;124638;-81
2023/03/14 05:56:14;;;;;;;;;;;;;;;9.62;84.49;98747.34;108063;1257;65556;-79
2023/03/14 05:58:41;;;;;;;;;;;;;;;9.66;84.41;98746.63;107765;1256;124592;-79
2023/03/14 06:01:08;;;;;;;;;;;;;;;9.69;84.37;98737.16;107770;1255;59786;-80
2023/03/14 06:03:38;;;;;;;;;;;;;;;9.73;84.35;98741.88;107617;1257;125061;-81
2023/03/14 06:06:13;;;;;;;;;;;;;;;9.77;84.35;98746.94;107468;1260;75148;-84
2023/03/14 06:08:50;;;;;;;;;;;;;;;9.82;84.34;98748.31;107242;1257;65761;-84
2023/03/14 06:11:17;;;;;;;;;;;;;;;9.85;84.20;98742.53;107436;1255;124598;-84
2023/03/14 06:13:46;;;;;;;;;;;;;;;9.88;84.23;98751.27;107609;1257;60217;-83
2023/03/14 06:16:19;;;;;;;;;;;;;;;9.90;84.14;98751.27;107509;1257;124574;-82
2023/03/14 06:18:52;;;;;;;;;;;;;;;9.94;84.05;98753.34;107410;1254;75196;-86
2023/03/14 06:21:19;;;;;;;;;;;;;;;9.98;84.13;98765.60;107316;1257;67117;-86
2023/03/14 06:23:56;;;;;;;;;;;;;;;10.01;84.06;98769.09;107297;1257;124798;-86
2023/03/14 06:26:24;;;;;;;;;;;;;;;10.07;84.13;98760.83;107257;1255;59846;-84
2023/03/14 06:28:53;;;;;;;;;;;;;;;10.14;84.18;98756.23;107091;1257;124756;-80
2023/03/14 06:31:20;;;;;;;;;;;;;;;10.20;84.12;98755.67;107399;1256;74737;-80
2023/03/14 06:33:47;;;;;;;;;;;;;;;10.29;84.23;98749.48;107535;1259;125481;-80
2023/03/14 06:36:14;;;;;;;;;;;;;;;10.39;84.19;98753.48;107533;1257;72677;-82
2023/03/14 06:38:41;;;;;;;;;;;;;;;10.45;84.17;98755.73;107861;1256;59506;-80
2023/03/14 06:41:10;;;;;;;;;;;;;;;10.53;84.09;98760.06;108502;1257;125420;-79
2023/03/14 06:43:43;;;;;;;;;;;;;;;10.61;83.93;98767.03;108805;1257;74993;-79
2023/03/14 06:46:10;;;;;;;;;;;;;;;10.66;83.78;98772.77;108946;1256;125453;-79
2023/03/14 06:48:38;;;;;;;;;;;;;;;10.69;83.68;98759.06;107710;1256;71756;-80
2023/03/14 06:51:07;;;;;;;;;;;;;;;10.75;83.63;98750.77;107619;1260;61401;-80
2023/03/14 06:53:34;;;;;;;;;;;;;;;10.81;83.55;98760.38;107707;1257;124657;-80
2023/03/14 06:56:01;;;;;;;;;;;;;;;10.86;83.57;98766.48;107610;1257;74583;-80
2023/03/14 06:58:28;;;;;;;;;;;;;;;10.91;83.50;98764.86;107681;1258;124619;-80
2023/03/14 07:00:56;;;;;;;;;;;;;;;10.98;83.46;98764.10;107983;1255;71851;-80
2023/03/14 07:03:23;;;;;;;;;;;;;;;11.02;83.34;98758.80;107734;1256;59625;-80
2023/03/14 07:05:50;;;;;;;;;;;;;;;11.05;83.32;98758.41;107931;1257;124444;-80
2023/03/14 07:08:17;;;;;;;;;;;;;;;11.07;83.17;98755.07;108640;1257;73863;-84
2023/03/14 07:10:57;;;;;;;;;;;;;;;11.10;83.25;98759.08;107085;1255;124705;-84
2023/03/14 07:13:24;;;;;;;;;;;;;;;11.17;83.33;98751.82;107452;1257;72744;-80
2023/03/14 07:15:51;;;;;;;;;;;;;;;11.25;83.31;98758.08;107520;1256;124835;-80
2023/03/14 07:18:18;;;;;;;;;;;;;;;11.31;83.32;98762.22;107755;1256;60132;-80
2023/03/14 07:20:45;;;;;;;;;;;;;;;11.34;83.21;98759.39;107946;1256;74429;-80
2023/03/14 07:23:12;;;;;;;;;;;;;;;11.38;83.09;98760.73;107619;1257;125246;-80
2023/03/14 07:25:39;;;;;;;;;;;;;;;11.43;83.15;98755.77;107554;1256;72811;-79
2023/03/14 07:28:06;;;;;;;;;;;;;;;11.50;83.15;98751.13;107368;1256;125225;-80
2023/03/14 07:30:35;;;;;;;;;;;;;;;11.58;83.12;98745.77;107312;1256;61130;-80
2023/03/14 07:33:01;;;;;;;;;;;;;;;11.67;82.96;98739.52;107529;1256;75292;-80
2023/03/14 07:35:29;;;;;;;;;;;;;;;11.72;82.92;98735.77;107535;1257;124584;-80
2023/03/14 07:37:56;;;;;;;;;;;;;;;11.80;82.90;98728.47;107568;1254;73217;-80
2023/03/14 07:40:30;;;;;;;;;;;;;;;11.90;82.83;98726.96;107723;1254;124714;-84
2023/03/14 07:42:57;;;;;;;;;;;;;;;12.01;82.74;98722.08;107542;1253;59970;-80
2023/03/14 07:45:24;;;;;;;;;;;;;;;12.15;82.69;98724.53;107481;1254;74629;-80
2023/03/14 07:47:51;;;;;;;;;;;;;;;12.29;82.62;98723.80;107479;1254;124371;-80
2023/03/14 07:50:19;;;;;;;;;;;;;;;12.42;82.44;98726.07;107506;1254;72691;-80
2023/03/14 07:52:45;;;;;;;;;;;;;;;12.54;82.12;98726.25;107528;1253;124578;-80
2023/03/14 07:55:13;;;;;;;;;;;;;;;12.62;82.03;98717.67;107452;1254;62153;-80
2023/03/14 07:57:40;;;;;;;;;;;;;;;12.74;81.85;98711.52;107350;1253;125406;-80
2023/03/14 08:00:08;;;;;;;;;;;;;;;12.83;81.76;98719.98;107623;1253;65710;-80
2023/03/14 08:02:36;;;;;;;;;;;;;;;12.90;81.53;98709.64;107644;1254;72672;-81
2023/03/14 08:05:03;;;;;;;;;;;;;;;13.02;81.37;98706.27;107277;1259;124637;-80
2023/03/14 08:07:30;;;;;;;;;;;;;;;13.10;81.16;98705.42;107258;1254;59645;-79
2023/03/14 08:09:57;;;;;;;;;;;;;;;13.20;81.07;98706.82;107642;1254;125024;-80
2023/03/14 08:12:36;;;;;;;;;;;;;;;13.26;80.78;98708.13;107638;1253;65768;-83
2023/03/14 08:15:05;;;;;;;;;;;;;;;13.30;80.65;98706.83;107931;1257;72812;-86
2023/03/14 08:17:32;;;;;;;;;;;;;;;13.37;80.50;98710.24;106927;1254;124708;-86
2023/03/14 08:20:10;;;;;;;;;;;;;;;13.40;80.27;98704.88;107085;1254;61152;-86
2023/03/14 08:22:37;;;;;;;;;;;;;;;13.43;80.12;98693.39;107014;1260;124279;-79
2023/03/14 08:25:05;;;;;;;;;;;;;;;13.46;79.98;98693.16;107414;1254;65752;-80
2023/03/14 08:27:31;;;;;;;;;;;;;;;13.50;79.86;98692.54;107398;1254;124148;-80
2023/03/14 08:29:58;;;;;;;;;;;;;;;13.58;79.80;98693.44;107478;1254;59659;-80
2023/03/14 08:32:35;;;;;;;;;;;;;;;13.71;79.79;98688.06;107947;1254;61105;-81
2023/03/14 08:35:31;;;;;;;;;;;;;;;13.82;79.51;98689.26;107642;1254;124369;-81
2023/03/14 08:38:09;;;;;;;;;;;;;;;13.85;79.21;98685.14;107940;1254;67044;-81
2023/03/14 08:40:37;;;;;;;;;;;;;;;13.86;78.93;98679.65;107191;1254;125228;-85
2023/03/14 08:43:06;;;;;;;;;;;;;;;13.86;78.78;98665.72;107075;1254;62141;-85
2023/03/14 08:45:33;;;;;;;;;;;;;;;13.90;78.74;98657.88;107546;1254;125150;-81
2023/03/14 08:48:00;;;;;;;;;;;;;;;13.92;78.59;98656.95;107336;1254;75082;-80
2023/03/14 08:50:29;;;;;;;;;;;;;;;13.95;78.46;98650.00;107367;1254;66833;-85
2023/03/14 08:52:59;;;;;;;;;;;;;;;13.99;78.46;98647.98;107336;1260;124811;-85
2023/03/14 08:55:29;;;;;;;;;;;;;;;14.06;78.43;98651.52;107546;1254;60836;-86
2023/03/14 08:57:56;;;;;;;;;;;;;;;14.11;78.15;98652.98;107217;1254;125167;-85
2023/03/14 09:00:29;;;;;;;;;;;;;;;14.14;77.88;98658.21;107360;1258;73976;-85
2023/03/14 09:02:57;;;;;;;;;;;;;;;14.19;77.95;98657.58;107450;1254;67170;-85
2023/03/14 09:05:26;;;;;;;;;;;;;;;14.29;77.92;98660.17;107464;1254;124778;-86
2023/03/14 09:07:53;;;;;;;;;;;;;;;14.40;77.79;98662.20;107873;1255;61226;-85
2023/03/14 09:10:20;;;;;;;;;;;;;;;14.51;77.71;98657.86;107938;1255;124538;-85
2023/03/14 09:12:54;;;;;;;;;;;;;;;14.63;77.47;98651.78;107811;1253;75137;-85
2023/03/14 09:15:37;;;;;;;;;;;;;;;14.78;77.45;98637.79;107660;1254;67066;-85
2023/03/14 09:18:33;;;;;;;;;;;;;;;15.01;77.46;98638.06;108041;1254;72443;-85
2023/03/14 09:21:02;;;;;;;;;;;;;;;15.23;77.13;98647.18;107847;1254;62163;-85
2023/03/14 09:23:48;;;;;;;;;;;;;;;15.32;76.52;98652.94;107641;1254;125120;-85
2023/03/14 09:26:21;;;;;;;;;;;;;;;15.35;76.27;98666.65;107860;1254;74697;-85
2023/03/14 09:28:56;;;;;;;;;;;;;;;15.42;75.96;98673.52;107961;1254;124354;-85
2023/03/14 09:31:23;;;;;;;;;;;;;;;15.39;75.64;98686.52;108015;1254;71825;-86
2023/03/14 09:33:50;;;;;;;;;;;;;;;15.35;75.51;98689.61;107818;1254;124286;-85
2023/03/14 09:36:17;;;;;;;;;;;;;;;15.31;75.34;98688.67;107729;1254;61489;-86
2023/03/14 09:38:44;;;;;;;;;;;;;;;15.21;75.02;98689.30;104903;1258;3986615;-85
2023/03/14 09:41:18;;;;;;;;;;;;;;;15.03;74.92;98684.46;107841;1254;124461;-86
2023/03/14 09:43:45;;;;;;;;;;;;;;;14.83;74.81;98682.70;107975;1254;71348;-85
2023/03/14 09:46:12;;;;;;;;;;;;;;;14.60;74.74;98690.14;107690;1254;124144;-86
2023/03/14 09:48:39;;;;;;;;;;;;;;;14.40;74.82;98690.61;107872;1254;59940;-86
2023/03/14 09:51:11;;;;;;;;;;;;;;;14.17;74.84;98684.78;107815;1254;74599;-86
2023/03/14 09:53:42;;;;;;;;;;;;;;;13.98;75.14;98685.02;107544;1254;124087;-80
2023/03/14 09:56:15;;;;;;;;;;;;;;;13.81;75.13;98688.74;107674;1259;72689;-81
2023/03/14 09:58:43;;;;;;;;;;;;;;;13.62;75.37;98696.70;108050;1254;124492;-80
2023/03/14 10:01:11;;;;;;;;;;;;;;;13.45;75.49;98703.39;108154;1254;62363;-81
2023/03/14 10:03:38;;;;;;;;;;;;;;;13.28;75.63;98705.98;107913;1256;124681;-81
2023/03/14 10:06:10;;;;;;;;;;;;;;;13.15;75.84;98703.40;107980;1254;66844;-81
2023/03/14 10:08:39;;;;;;;;;;;;;;;13.05;75.96;98699.70;107878;1254;71103;-81
2023/03/14 10:11:07;;;;;;;;;;;;;;;12.97;76.25;98698.26;107706;1254;124645;-81
2023/03/14 10:13:35;;;;;;;;;;;;;;;12.91;76.23;98696.61;107857;1254;61298;-81
2023/03/14 10:16:03;;;;;;;;;;;;;;;12.85;76.37;98700.92;107727;1254;125473;-81
2023/03/14 10:18:31;;;;;;;;;;;;;;;12.80;76.53;98689.20;107862;1254;65817;-80
2023/03/14 10:21:02;;;;;;;;;;;;;;;12.79;76.69;98689.24;107678;1254;72700;-80
2023/03/14 10:23:30;;;;;;;;;;;;;;;12.75;76.74;98704.44;107711;1254;124842;-81
2023/03/14 10:26:07;;;;;;;;;;;;;;;12.71;76.72;98708.39;107817;1254;61260;-81
2023/03/14 10:28:37;;;;;;;;;;;;;;;12.67;76.88;98714.80;107587;1254;125230;-81
2023/03/14 10:31:06;;;;;;;;;;;;;;;12.65;76.81;98714.64;107583;1254;67055;-85
2023/03/14 10:33:34;;;;;;;;;;;;;;;12.66;76.97;98709.16;108994;1256;124970;-85
2023/03/14 10:36:03;;;;;;;;;;;;;;;12.73;77.04;98713.81;108048;1256;60559;-85
2023/03/14 10:38:31;;;;;;;;;;;;;;;12.80;77.09;98713.86;107550;1256;59638;-85
2023/03/14 10:40:58;;;;;;;;;;;;;;;12.92;77.14;98715.08;107880;1259;124087;-85
2023/03/14 10:43:26;;;;;;;;;;;;;;;13.03;77.06;98714.88;107998;1256;65628;-81
2023/03/14 10:45:57;;;;;;;;;;;;;;;13.11;76.93;98716.52;108052;1259;124250;-80
2023/03/14 10:48:34;;;;;;;;;;;;;;;13.24;77.01;98712.91;108248;1256;59244;-80
2023/03/14 10:51:03;;;;;;;;;;;;;;;13.42;76.90;98713.32;108331;1256;59969;-80
2023/03/14 10:53:34;;;;;;;;;;;;;;;13.54;76.65;98713.07;107883;1255;124988;-80
2023/03/14 10:56:02;;;;;;;;;;;;;;;13.64;76.39;98716.58;107773;1257;67042;-80
2023/03/14 10:58:29;;;;;;;;;;;;;;;13.72;76.30;98712.73;107859;1255;124721;-80
2023/03/14 11:01:09;;;;;;;;;;;;;;;13.87;76.39;98701.84;108151;1256;59590;-80
2023/03/14 11:03:36;;;;;;;;;;;;;;;13.99;76.00;98687.11;107962;1256;125094;-80
2023/03/14 11:06:09;;;;;;;;;;;;;;;14.01;75.66;98683.38;108012;1255;74820;-80
2023/03/14 11:09:05;;;;;;;;;;;;;;;14.04;75.67;98681.55;107958;1256;66771;-84
2023/03/14 11:11:33;;;;;;;;;;;;;;;14.24;75.73;98681.64;107619;1255;124862;-84
2023/03/14 11:14:09;;;;;;;;;;;;;;;14.40;75.61;98680.53;107654;1255;59416;-84
2023/03/14 11:17:08;;;;;;;;;;;;;;;14.49;75.22;98675.21;107501;1257;124685;-85
2023/03/14 11:19:41;;;;;;;;;;;;;;;14.51;74.95;98668.47;107754;1256;75152;-80
2023/03/14 11:22:18;;;;;;;;;;;;;;;14.61;75.05;98668.76;107646;1255;124722;-80
2023/03/14 11:24:48;;;;;;;;;;;;;;;14.78;74.85;98666.57;107694;1258;73293;-80
2023/03/14 11:27:26;;;;;;;;;;;;;;;14.93;74.68;98663.02;107577;1262;59950;-80
2023/03/14 11:29:55;;;;;;;;;;;;;;;15.11;74.32;98663.96;107929;1256;124071;-81
2023/03/14 11:32:36;;;;;;;;;;;;;;;15.22;74.11;98670.73;107878;1255;73283;-81
2023/03/14 11:35:09;;;;;;;;;;;;;;;15.36;73.93;98672.83;107799;1254;124075;-81
2023/03/14 11:37:55;;;;;;;;;;;;;;;15.46;73.64;98664.06;107575;1254;71454;-85
2023/03/14 11:40:30;;;;;;;;;;;;;;;15.58;73.45;98664.59;107651;1254;124391;-85
2023/03/14 11:43:19;;;;;;;;;;;;;;;15.76;73.33;98663.23;107520;1254;60201;-85
2023/03/14 11:45:48;;;;;;;;;;;;;;;15.89;72.98;98662.30;107781;1254;125078;-81
2023/03/14 11:48:17;;;;;;;;;;;;;;;15.99;72.72;98656.52;108948;1253;65091;-80
2023/03/14 11:50:44;;;;;;;;;;;;;;;16.01;72.28;98649.05;108367;1254;72597;-81
2023/03/14 11:53:14;;;;;;;;;;;;;;;15.97;72.08;98653.40;107721;1254;124598;-80
2023/03/14 11:55:42;;;;;;;;;;;;;;;15.94;72.03;98656.48;107066;1257;60189;-86
2023/03/14 11:58:14;;;;;;;;;;;;;;;15.87;71.74;98645.40;107515;1256;124448;-80
2023/03/14 12:00:50;;;;;;;;;;;;;;;15.84;71.83;98638.77;107446;1254;64932;-85
2023/03/14 12:03:43;;;;;;;;;;;;;;;15.86;71.86;98638.70;107531;1254;72405;-86
2023/03/14 12:06:10;;;;;;;;;;;;;;;15.80;71.57;98646.48;107792;1253;59959;-80
2023/03/14 12:08:48;;;;;;;;;;;;;;;15.65;71.35;98647.95;107591;1254;59863;-80
2023/03/14 12:11:30;;;;;;;;;;;;;;;15.51;71.34;98651.88;107408;1257;123912;-79
2023/03/14 12:13:57;;;;;;;;;;;;;;;15.53;71.56;98650.07;107648;1253;67560;-80
2023/03/14 12:16:24;;;;;;;;;;;;;;;15.57;71.56;98648.52;107717;1254;124076;-80
2023/03/14 12:18:51;;;;;;;;;;;;;;;15.48;71.23;98643.84;107862;1254;62098;-81
2023/03/14 12:21:19;;;;;;;;;;;;;;;15.36;71.21;98641.17;107593;1254;60418;-81
2023/03/14 12:23:53;;;;;;;;;;;;;;;15.28;71.24;98641.03;108570;1254;124631;-81
2023/03/14 12:26:20;;;;;;;;;;;;;;;15.23;71.22;98651.09;107726;1254;67683;-80
2023/03/14 12:28:56;;;;;;;;;;;;;;;15.18;71.25;98652.11;107820;1254;124544;-81
2023/03/14 12:31:32;;;;;;;;;;;;;;;15.23;71.30;98651.45;107968;1254;61077;-81
2023/03/14 12:34:11;;;;;;;;;;;;;;;15.29;71.30;98650.73;107748;1254;124201;-80
2023/03/14 12:36:42;;;;;;;;;;;;;;;15.33;71.08;98651.85;108089;1254;73466;-80
2023/03/14 12:39:33;;;;;;;;;;;;;;;15.43;71.18;98655.49;108081;1254;66752;-81
2023/03/14 12:42:09;;;;;;;;;;;;;;;15.60;71.15;98650.41;107124;1262;124409;-80
2023/03/14 12:44:40;;;;;;;;;;;;;;;15.61;70.87;98652.84;107208;1261;60193;-80
2023/03/14 12:47:16;;;;;;;;;;;;;;;15.58;70.76;98654.00;107539;1262;125071;-80
2023/03/14 12:49:47;;;;;;;;;;;;;;;15.60;70.63;98653.94;107589;1261;72581;-80